METAR Data
IDs: Format: Raw Decoded Include TAF

Data at: 0735 UTC 18 Sep 2021

EPKK 180730Z 25009KT 9999 BKN015 13/10 Q1012